sensor_id;sensor_type;location;lat;lon;timestamp;temperature;humidity
64062;DHT22;50308;47.438;-1.528;2023-02-28T00:00:06;6.50;64.20
64062;DHT22;50308;47.438;-1.528;2023-02-28T00:02:41;6.40;64.50
64062;DHT22;50308;47.438;-1.528;2023-02-28T00:05:08;6.40;64.50
64062;DHT22;50308;47.438;-1.528;2023-02-28T00:07:34;6.40;64.40
64062;DHT22;50308;47.438;-1.528;2023-02-28T00:10:00;6.40;64.50
64062;DHT22;50308;47.438;-1.528;2023-02-28T00:12:26;6.50;64.50
64062;DHT22;50308;47.438;-1.528;2023-02-28T00:14:51;6.50;64.40
64062;DHT22;50308;47.438;-1.528;2023-02-28T00:17:17;6.40;64.50
64062;DHT22;50308;47.438;-1.528;2023-02-28T00:19:47;6.40;64.70
64062;DHT22;50308;47.438;-1.528;2023-02-28T00:22:13;6.40;64.60
64062;DHT22;50308;47.438;-1.528;2023-02-28T00:24:39;6.40;64.80
64062;DHT22;50308;47.438;-1.528;2023-02-28T00:27:04;6.40;64.60
64062;DHT22;50308;47.438;-1.528;2023-02-28T00:29:30;6.30;64.50
64062;DHT22;50308;47.438;-1.528;2023-02-28T00:31:55;6.30;65.00
64062;DHT22;50308;47.438;-1.528;2023-02-28T00:34:21;6.30;65.80
64062;DHT22;50308;47.438;-1.528;2023-02-28T00:36:46;6.20;65.00
64062;DHT22;50308;47.438;-1.528;2023-02-28T00:39:15;6.10;65.10
64062;DHT22;50308;47.438;-1.528;2023-02-28T00:41:40;6.10;65.20
64062;DHT22;50308;47.438;-1.528;2023-02-28T00:44:06;6.10;65.80
64062;DHT22;50308;47.438;-1.528;2023-02-28T00:46:32;6.10;65.50
64062;DHT22;50308;47.438;-1.528;2023-02-28T00:48:57;6.10;65.20
64062;DHT22;50308;47.438;-1.528;2023-02-28T00:51:23;6.20;65.40
64062;DHT22;50308;47.438;-1.528;2023-02-28T00:53:48;6.20;65.30
64062;DHT22;50308;47.438;-1.528;2023-02-28T00:56:14;6.20;65.40
64062;DHT22;50308;47.438;-1.528;2023-02-28T00:58:39;6.10;65.60
64062;DHT22;50308;47.438;-1.528;2023-02-28T01:01:05;6.10;65.40
64062;DHT22;50308;47.438;-1.528;2023-02-28T01:03:31;6.00;65.60
64062;DHT22;50308;47.438;-1.528;2023-02-28T01:05:57;6.10;65.50
64062;DHT22;50308;47.438;-1.528;2023-02-28T01:08:22;6.10;65.60
64062;DHT22;50308;47.438;-1.528;2023-02-28T01:10:48;6.20;65.50
64062;DHT22;50308;47.438;-1.528;2023-02-28T01:13:14;6.10;65.40
64062;DHT22;50308;47.438;-1.528;2023-02-28T01:15:49;6.10;65.30
64062;DHT22;50308;47.438;-1.528;2023-02-28T01:18:15;6.10;65.50
64062;DHT22;50308;47.438;-1.528;2023-02-28T01:20:41;6.10;65.50
64062;DHT22;50308;47.438;-1.528;2023-02-28T01:23:06;6.10;65.60
64062;DHT22;50308;47.438;-1.528;2023-02-28T01:25:34;6.10;65.70
64062;DHT22;50308;47.438;-1.528;2023-02-28T01:27:59;6.00;65.80
64062;DHT22;50308;47.438;-1.528;2023-02-28T01:30:25;6.10;65.70
64062;DHT22;50308;47.438;-1.528;2023-02-28T01:32:50;6.10;65.30
64062;DHT22;50308;47.438;-1.528;2023-02-28T01:35:18;6.10;65.40
64062;DHT22;50308;47.438;-1.528;2023-02-28T01:37:44;6.10;65.40
64062;DHT22;50308;47.438;-1.528;2023-02-28T01:40:10;6.10;65.50
64062;DHT22;50308;47.438;-1.528;2023-02-28T01:42:36;6.00;65.60
64062;DHT22;50308;47.438;-1.528;2023-02-28T01:47:36;6.10;65.80
64062;DHT22;50308;47.438;-1.528;2023-02-28T01:50:04;6.10;65.20
64062;DHT22;50308;47.438;-1.528;2023-02-28T01:52:30;6.10;65.30
64062;DHT22;50308;47.438;-1.528;2023-02-28T01:54:57;6.10;65.40
64062;DHT22;50308;47.438;-1.528;2023-02-28T01:57:24;6.00;65.20
64062;DHT22;50308;47.438;-1.528;2023-02-28T01:59:56;6.00;65.60
64062;DHT22;50308;47.438;-1.528;2023-02-28T02:02:26;6.00;65.60
64062;DHT22;50308;47.438;-1.528;2023-02-28T02:05:26;6.00;65.70
64062;DHT22;50308;47.438;-1.528;2023-02-28T02:07:45;6.00;65.40
64062;DHT22;50308;47.438;-1.528;2023-02-28T02:12:55;6.00;65.40
64062;DHT22;50308;47.438;-1.528;2023-02-28T02:17:56;6.00;65.70
64062;DHT22;50308;47.438;-1.528;2023-02-28T02:20:27;5.90;65.60
64062;DHT22;50308;47.438;-1.528;2023-02-28T02:25:34;5.90;65.70
64062;DHT22;50308;47.438;-1.528;2023-02-28T02:35:56;5.80;66.00
64062;DHT22;50308;47.438;-1.528;2023-02-28T02:38:32;5.90;65.80
64062;DHT22;50308;47.438;-1.528;2023-02-28T02:46:19;5.90;65.90
64062;DHT22;50308;47.438;-1.528;2023-02-28T02:48:46;5.80;66.00
64062;DHT22;50308;47.438;-1.528;2023-02-28T02:51:16;5.90;65.60
64062;DHT22;50308;47.438;-1.528;2023-02-28T02:53:44;5.80;66.00
64062;DHT22;50308;47.438;-1.528;2023-02-28T02:56:10;5.80;66.00
64062;DHT22;50308;47.438;-1.528;2023-02-28T02:58:38;5.90;65.80
64062;DHT22;50308;47.438;-1.528;2023-02-28T03:01:07;5.90;65.60
64062;DHT22;50308;47.438;-1.528;2023-02-28T03:03:36;5.80;65.60
64062;DHT22;50308;47.438;-1.528;2023-02-28T03:06:02;5.70;65.80
64062;DHT22;50308;47.438;-1.528;2023-02-28T03:08:29;5.80;65.80
64062;DHT22;50308;47.438;-1.528;2023-02-28T03:10:59;5.80;65.80
64062;DHT22;50308;47.438;-1.528;2023-02-28T03:23:48;5.70;65.80
64062;DHT22;50308;47.438;-1.528;2023-02-28T03:26:18;5.80;65.90
64062;DHT22;50308;47.438;-1.528;2023-02-28T03:31:22;5.70;66.00
64062;DHT22;50308;47.438;-1.528;2023-02-28T03:33:51;5.70;66.20
64062;DHT22;50308;47.438;-1.528;2023-02-28T03:36:21;5.70;66.10
64062;DHT22;50308;47.438;-1.528;2023-02-28T03:38:53;5.70;65.90
64062;DHT22;50308;47.438;-1.528;2023-02-28T03:41:23;5.70;65.90
64062;DHT22;50308;47.438;-1.528;2023-02-28T03:43:53;5.70;66.00
64062;DHT22;50308;47.438;-1.528;2023-02-28T03:46:21;5.70;66.10
64062;DHT22;50308;47.438;-1.528;2023-02-28T03:48:50;5.70;66.00
64062;DHT22;50308;47.438;-1.528;2023-02-28T03:51:18;5.60;66.20
64062;DHT22;50308;47.438;-1.528;2023-02-28T03:53:51;5.60;66.20
64062;DHT22;50308;47.438;-1.528;2023-02-28T03:56:31;5.70;66.10
64062;DHT22;50308;47.438;-1.528;2023-02-28T03:59:00;5.60;66.00
64062;DHT22;50308;47.438;-1.528;2023-02-28T04:03:53;5.60;66.40
64062;DHT22;50308;47.438;-1.528;2023-02-28T04:06:20;5.60;66.20
64062;DHT22;50308;47.438;-1.528;2023-02-28T04:08:46;5.50;66.10
64062;DHT22;50308;47.438;-1.528;2023-02-28T04:13:40;5.60;66.10
64062;DHT22;50308;47.438;-1.528;2023-02-28T04:16:08;5.70;65.90
64062;DHT22;50308;47.438;-1.528;2023-02-28T04:18:41;5.50;66.10
64062;DHT22;50308;47.438;-1.528;2023-02-28T04:21:08;5.60;66.00
64062;DHT22;50308;47.438;-1.528;2023-02-28T04:23:34;5.60;66.10
64062;DHT22;50308;47.438;-1.528;2023-02-28T04:25:59;5.60;66.10
64062;DHT22;50308;47.438;-1.528;2023-02-28T04:28:25;5.50;66.30
64062;DHT22;50308;47.438;-1.528;2023-02-28T04:31:08;5.50;66.30
64062;DHT22;50308;47.438;-1.528;2023-02-28T04:33:34;5.50;66.30
64062;DHT22;50308;47.438;-1.528;2023-02-28T04:36:03;5.60;66.30
64062;DHT22;50308;47.438;-1.528;2023-02-28T04:38:31;5.60;66.00
64062;DHT22;50308;47.438;-1.528;2023-02-28T04:40:58;5.60;66.20
64062;DHT22;50308;47.438;-1.528;2023-02-28T04:43:23;5.60;65.90
64062;DHT22;50308;47.438;-1.528;2023-02-28T04:45:49;5.60;66.20
64062;DHT22;50308;47.438;-1.528;2023-02-28T04:48:14;5.50;66.30
64062;DHT22;50308;47.438;-1.528;2023-02-28T04:50:40;5.50;66.40
64062;DHT22;50308;47.438;-1.528;2023-02-28T04:53:05;5.40;66.30
64062;DHT22;50308;47.438;-1.528;2023-02-28T04:55:31;5.40;66.20
64062;DHT22;50308;47.438;-1.528;2023-02-28T04:57:56;5.30;66.30
64062;DHT22;50308;47.438;-1.528;2023-02-28T05:00:23;5.30;66.80
64062;DHT22;50308;47.438;-1.528;2023-02-28T05:02:48;5.30;66.70
64062;DHT22;50308;47.438;-1.528;2023-02-28T05:05:14;5.30;66.70
64062;DHT22;50308;47.438;-1.528;2023-02-28T05:07:43;5.30;66.70
64062;DHT22;50308;47.438;-1.528;2023-02-28T05:10:10;5.30;66.90
64062;DHT22;50308;47.438;-1.528;2023-02-28T05:12:35;5.20;66.80
64062;DHT22;50308;47.438;-1.528;2023-02-28T05:15:01;5.20;66.80
64062;DHT22;50308;47.438;-1.528;2023-02-28T05:17:27;5.20;66.60
64062;DHT22;50308;47.438;-1.528;2023-02-28T05:19:53;5.20;66.60
64062;DHT22;50308;47.438;-1.528;2023-02-28T05:22:18;5.20;66.60
64062;DHT22;50308;47.438;-1.528;2023-02-28T05:24:44;5.20;66.80
64062;DHT22;50308;47.438;-1.528;2023-02-28T05:27:10;5.20;66.80
64062;DHT22;50308;47.438;-1.528;2023-02-28T05:29:36;5.20;66.90
64062;DHT22;50308;47.438;-1.528;2023-02-28T05:32:10;5.20;66.80
64062;DHT22;50308;47.438;-1.528;2023-02-28T05:34:36;5.20;67.00
64062;DHT22;50308;47.438;-1.528;2023-02-28T05:37:02;5.20;66.70
64062;DHT22;50308;47.438;-1.528;2023-02-28T05:39:27;5.20;66.60
64062;DHT22;50308;47.438;-1.528;2023-02-28T05:41:53;5.20;66.70
64062;DHT22;50308;47.438;-1.528;2023-02-28T05:44:18;5.20;67.00
64062;DHT22;50308;47.438;-1.528;2023-02-28T05:46:44;5.10;67.00
64062;DHT22;50308;47.438;-1.528;2023-02-28T05:49:10;5.10;66.70
64062;DHT22;50308;47.438;-1.528;2023-02-28T05:51:35;5.10;66.80
64062;DHT22;50308;47.438;-1.528;2023-02-28T05:54:05;5.10;66.80
64062;DHT22;50308;47.438;-1.528;2023-02-28T05:56:30;5.10;67.10
64062;DHT22;50308;47.438;-1.528;2023-02-28T05:58:56;5.10;67.20
64062;DHT22;50308;47.438;-1.528;2023-02-28T06:01:35;5.00;67.00
64062;DHT22;50308;47.438;-1.528;2023-02-28T06:04:02;5.00;66.90
64062;DHT22;50308;47.438;-1.528;2023-02-28T06:06:28;5.00;67.00
64062;DHT22;50308;47.438;-1.528;2023-02-28T06:08:55;5.10;67.10
64062;DHT22;50308;47.438;-1.528;2023-02-28T06:11:20;5.10;67.00
64062;DHT22;50308;47.438;-1.528;2023-02-28T06:13:46;5.10;67.10
64062;DHT22;50308;47.438;-1.528;2023-02-28T06:16:11;5.00;66.60
64062;DHT22;50308;47.438;-1.528;2023-02-28T06:18:37;5.00;67.10
64062;DHT22;50308;47.438;-1.528;2023-02-28T06:21:03;4.90;67.00
64062;DHT22;50308;47.438;-1.528;2023-02-28T06:23:28;4.90;66.80
64062;DHT22;50308;47.438;-1.528;2023-02-28T06:25:54;4.90;67.20
64062;DHT22;50308;47.438;-1.528;2023-02-28T06:28:24;5.00;67.30
64062;DHT22;50308;47.438;-1.528;2023-02-28T06:30:49;5.00;67.10
64062;DHT22;50308;47.438;-1.528;2023-02-28T06:33:15;4.90;67.30
64062;DHT22;50308;47.438;-1.528;2023-02-28T06:35:43;4.90;67.20
64062;DHT22;50308;47.438;-1.528;2023-02-28T06:38:09;4.90;67.40
64062;DHT22;50308;47.438;-1.528;2023-02-28T06:40:34;4.90;67.40
64062;DHT22;50308;47.438;-1.528;2023-02-28T06:43:01;4.90;67.30
64062;DHT22;50308;47.438;-1.528;2023-02-28T06:45:26;4.90;67.40
64062;DHT22;50308;47.438;-1.528;2023-02-28T06:47:52;4.90;67.40
64062;DHT22;50308;47.438;-1.528;2023-02-28T06:50:18;4.90;67.30
64062;DHT22;50308;47.438;-1.528;2023-02-28T06:52:46;4.90;67.40
64062;DHT22;50308;47.438;-1.528;2023-02-28T06:55:11;4.90;67.30
64062;DHT22;50308;47.438;-1.528;2023-02-28T06:57:37;4.90;67.00
64062;DHT22;50308;47.438;-1.528;2023-02-28T07:00:07;4.90;67.60
64062;DHT22;50308;47.438;-1.528;2023-02-28T07:02:33;4.90;67.30
64062;DHT22;50308;47.438;-1.528;2023-02-28T07:04:58;4.90;67.30
64062;DHT22;50308;47.438;-1.528;2023-02-28T07:07:24;5.00;67.40
64062;DHT22;50308;47.438;-1.528;2023-02-28T07:09:50;4.90;67.50
64062;DHT22;50308;47.438;-1.528;2023-02-28T07:12:16;4.90;67.50
64062;DHT22;50308;47.438;-1.528;2023-02-28T07:14:41;4.90;67.10
64062;DHT22;50308;47.438;-1.528;2023-02-28T07:17:08;4.90;67.40
64062;DHT22;50308;47.438;-1.528;2023-02-28T07:19:33;5.00;67.20
64062;DHT22;50308;47.438;-1.528;2023-02-28T07:21:59;5.00;67.20
64062;DHT22;50308;47.438;-1.528;2023-02-28T07:24:24;5.00;67.20
64062;DHT22;50308;47.438;-1.528;2023-02-28T07:26:53;5.00;67.40
64062;DHT22;50308;47.438;-1.528;2023-02-28T07:29:19;5.10;67.30
64062;DHT22;50308;47.438;-1.528;2023-02-28T07:31:44;5.10;67.20
64062;DHT22;50308;47.438;-1.528;2023-02-28T07:34:12;5.00;67.30
64062;DHT22;50308;47.438;-1.528;2023-02-28T07:36:37;5.10;67.10
64062;DHT22;50308;47.438;-1.528;2023-02-28T07:39:03;5.10;67.10
64062;DHT22;50308;47.438;-1.528;2023-02-28T07:41:29;5.10;67.50
64062;DHT22;50308;47.438;-1.528;2023-02-28T07:43:58;5.10;67.30
64062;DHT22;50308;47.438;-1.528;2023-02-28T07:46:24;5.10;67.50
64062;DHT22;50308;47.438;-1.528;2023-02-28T07:48:50;5.10;67.50
64062;DHT22;50308;47.438;-1.528;2023-02-28T07:51:16;5.20;67.50
64062;DHT22;50308;47.438;-1.528;2023-02-28T07:53:42;5.10;67.50
64062;DHT22;50308;47.438;-1.528;2023-02-28T07:56:07;5.10;67.50
64062;DHT22;50308;47.438;-1.528;2023-02-28T07:58:33;5.10;67.50
64062;DHT22;50308;47.438;-1.528;2023-02-28T08:01:08;5.20;67.50
64062;DHT22;50308;47.438;-1.528;2023-02-28T08:03:34;5.20;67.50
64062;DHT22;50308;47.438;-1.528;2023-02-28T08:06:01;5.20;67.70
64062;DHT22;50308;47.438;-1.528;2023-02-28T08:08:27;5.20;67.80
64062;DHT22;50308;47.438;-1.528;2023-02-28T08:10:59;5.20;67.50
64062;DHT22;50308;47.438;-1.528;2023-02-28T08:13:26;5.30;67.60
64062;DHT22;50308;47.438;-1.528;2023-02-28T08:15:53;5.20;67.50
64062;DHT22;50308;47.438;-1.528;2023-02-28T08:18:19;5.20;67.50
64062;DHT22;50308;47.438;-1.528;2023-02-28T08:20:44;5.30;67.50
64062;DHT22;50308;47.438;-1.528;2023-02-28T08:23:10;5.30;67.60
64062;DHT22;50308;47.438;-1.528;2023-02-28T08:25:35;5.30;67.90
64062;DHT22;50308;47.438;-1.528;2023-02-28T08:28:01;5.30;67.60
64062;DHT22;50308;47.438;-1.528;2023-02-28T08:30:26;5.40;67.60
64062;DHT22;50308;47.438;-1.528;2023-02-28T08:32:52;5.40;67.50
64062;DHT22;50308;47.438;-1.528;2023-02-28T08:35:17;5.50;67.70
64062;DHT22;50308;47.438;-1.528;2023-02-28T08:37:43;5.50;67.70
64062;DHT22;50308;47.438;-1.528;2023-02-28T08:40:09;5.50;67.40
64062;DHT22;50308;47.438;-1.528;2023-02-28T08:42:35;5.50;67.40
64062;DHT22;50308;47.438;-1.528;2023-02-28T08:45:00;5.50;67.50
64062;DHT22;50308;47.438;-1.528;2023-02-28T08:47:26;5.50;67.50
64062;DHT22;50308;47.438;-1.528;2023-02-28T08:49:51;5.60;67.40
64062;DHT22;50308;47.438;-1.528;2023-02-28T08:52:17;5.60;67.30
64062;DHT22;50308;47.438;-1.528;2023-02-28T08:54:43;5.70;67.00
64062;DHT22;50308;47.438;-1.528;2023-02-28T08:57:08;5.70;67.20
64062;DHT22;50308;47.438;-1.528;2023-02-28T08:59:34;5.80;67.00
64062;DHT22;50308;47.438;-1.528;2023-02-28T09:01:59;5.80;66.70
64062;DHT22;50308;47.438;-1.528;2023-02-28T09:04:25;5.80;66.90
64062;DHT22;50308;47.438;-1.528;2023-02-28T09:06:51;6.00;66.40
64062;DHT22;50308;47.438;-1.528;2023-02-28T09:09:16;6.00;65.90
64062;DHT22;50308;47.438;-1.528;2023-02-28T09:11:42;5.80;67.00
64062;DHT22;50308;47.438;-1.528;2023-02-28T09:14:07;6.00;66.10
64062;DHT22;50308;47.438;-1.528;2023-02-28T09:16:33;6.00;65.80
64062;DHT22;50308;47.438;-1.528;2023-02-28T09:18:59;6.10;65.70
64062;DHT22;50308;47.438;-1.528;2023-02-28T09:21:24;6.10;65.90
64062;DHT22;50308;47.438;-1.528;2023-02-28T09:23:50;6.20;65.60
64062;DHT22;50308;47.438;-1.528;2023-02-28T09:26:17;6.30;64.80
64062;DHT22;50308;47.438;-1.528;2023-02-28T09:28:43;6.30;65.20
64062;DHT22;50308;47.438;-1.528;2023-02-28T09:31:16;6.30;64.80
64062;DHT22;50308;47.438;-1.528;2023-02-28T09:33:42;6.40;64.80
64062;DHT22;50308;47.438;-1.528;2023-02-28T09:36:07;6.40;64.30
64062;DHT22;50308;47.438;-1.528;2023-02-28T09:38:33;6.40;64.40
64062;DHT22;50308;47.438;-1.528;2023-02-28T09:41:00;6.40;64.50
64062;DHT22;50308;47.438;-1.528;2023-02-28T09:43:29;6.40;64.00
64062;DHT22;50308;47.438;-1.528;2023-02-28T09:46:07;6.50;64.10
64062;DHT22;50308;47.438;-1.528;2023-02-28T09:48:35;6.50;64.50
64062;DHT22;50308;47.438;-1.528;2023-02-28T09:51:03;6.70;63.40
64062;DHT22;50308;47.438;-1.528;2023-02-28T09:53:30;6.80;62.90
64062;DHT22;50308;47.438;-1.528;2023-02-28T09:56:01;6.90;63.20
64062;DHT22;50308;47.438;-1.528;2023-02-28T10:00:58;6.90;61.70
64062;DHT22;50308;47.438;-1.528;2023-02-28T10:03:27;6.80;61.20
64062;DHT22;50308;47.438;-1.528;2023-02-28T10:05:56;6.70;62.10
64062;DHT22;50308;47.438;-1.528;2023-02-28T10:08:28;6.80;61.00
64062;DHT22;50308;47.438;-1.528;2023-02-28T10:10:55;6.90;61.20
64062;DHT22;50308;47.438;-1.528;2023-02-28T10:16:01;6.90;59.90
64062;DHT22;50308;47.438;-1.528;2023-02-28T10:18:28;7.00;60.50
64062;DHT22;50308;47.438;-1.528;2023-02-28T10:20:56;7.00;60.20
64062;DHT22;50308;47.438;-1.528;2023-02-28T10:23:28;7.20;60.70
64062;DHT22;50308;47.438;-1.528;2023-02-28T10:26:01;7.20;59.70
64062;DHT22;50308;47.438;-1.528;2023-02-28T10:28:27;7.20;59.40
64062;DHT22;50308;47.438;-1.528;2023-02-28T10:30:53;7.30;59.50
64062;DHT22;50308;47.438;-1.528;2023-02-28T10:33:21;7.20;58.80
64062;DHT22;50308;47.438;-1.528;2023-02-28T10:35:47;7.20;59.50
64062;DHT22;50308;47.438;-1.528;2023-02-28T10:38:18;7.10;59.00
64062;DHT22;50308;47.438;-1.528;2023-02-28T10:40:44;7.20;58.60
64062;DHT22;50308;47.438;-1.528;2023-02-28T10:45:38;7.30;58.10
64062;DHT22;50308;47.438;-1.528;2023-02-28T10:53:15;7.20;57.60
64062;DHT22;50308;47.438;-1.528;2023-02-28T10:55:41;7.30;57.50
64062;DHT22;50308;47.438;-1.528;2023-02-28T10:58:20;7.40;56.60
64062;DHT22;50308;47.438;-1.528;2023-02-28T11:00:46;7.30;57.30
64062;DHT22;50308;47.438;-1.528;2023-02-28T11:03:23;7.40;57.90
64062;DHT22;50308;47.438;-1.528;2023-02-28T11:05:49;7.50;59.00
64062;DHT22;50308;47.438;-1.528;2023-02-28T11:08:15;7.50;57.20
64062;DHT22;50308;47.438;-1.528;2023-02-28T11:10:48;7.60;57.10
64062;DHT22;50308;47.438;-1.528;2023-02-28T11:13:17;7.60;57.00
64062;DHT22;50308;47.438;-1.528;2023-02-28T11:15:49;7.60;56.80
64062;DHT22;50308;47.438;-1.528;2023-02-28T11:18:39;7.70;57.30
64062;DHT22;50308;47.438;-1.528;2023-02-28T11:21:02;7.60;57.10
64062;DHT22;50308;47.438;-1.528;2023-02-28T11:23:28;7.60;57.40
64062;DHT22;50308;47.438;-1.528;2023-02-28T11:25:57;7.70;57.70
64062;DHT22;50308;47.438;-1.528;2023-02-28T11:28:25;7.70;57.40
64062;DHT22;50308;47.438;-1.528;2023-02-28T11:36:09;7.80;57.60
64062;DHT22;50308;47.438;-1.528;2023-02-28T11:38:35;7.80;57.40
64062;DHT22;50308;47.438;-1.528;2023-02-28T11:41:07;7.80;56.90
64062;DHT22;50308;47.438;-1.528;2023-02-28T11:46:10;7.70;56.90
64062;DHT22;50308;47.438;-1.528;2023-02-28T11:54:12;7.80;57.10
64062;DHT22;50308;47.438;-1.528;2023-02-28T12:09:51;7.90;56.80
64062;DHT22;50308;47.438;-1.528;2023-02-28T12:22:47;8.00;55.60
64062;DHT22;50308;47.438;-1.528;2023-02-28T12:27:54;8.00;56.80
64062;DHT22;50308;47.438;-1.528;2023-02-28T12:30:23;8.00;58.80
64062;DHT22;50308;47.438;-1.528;2023-02-28T12:32:52;8.00;58.00
64062;DHT22;50308;47.438;-1.528;2023-02-28T12:35:31;8.00;57.30
64062;DHT22;50308;47.438;-1.528;2023-02-28T12:38:14;8.10;57.30
64062;DHT22;50308;47.438;-1.528;2023-02-28T12:40:47;8.10;57.30
64062;DHT22;50308;47.438;-1.528;2023-02-28T12:43:15;8.10;57.50
64062;DHT22;50308;47.438;-1.528;2023-02-28T12:48:08;8.10;56.60
64062;DHT22;50308;47.438;-1.528;2023-02-28T12:50:35;8.10;59.40
64062;DHT22;50308;47.438;-1.528;2023-02-28T12:58:22;8.20;57.80
64062;DHT22;50308;47.438;-1.528;2023-02-28T13:10:52;8.30;58.00
64062;DHT22;50308;47.438;-1.528;2023-02-28T13:13:22;8.30;58.10
64062;DHT22;50308;47.438;-1.528;2023-02-28T13:18:28;8.30;58.70
64062;DHT22;50308;47.438;-1.528;2023-02-28T13:20:54;8.30;58.30
64062;DHT22;50308;47.438;-1.528;2023-02-28T13:23:40;8.30;58.70
64062;DHT22;50308;47.438;-1.528;2023-02-28T13:26:06;8.30;60.00
64062;DHT22;50308;47.438;-1.528;2023-02-28T13:31:16;8.40;57.60
64062;DHT22;50308;47.438;-1.528;2023-02-28T13:38:43;8.30;58.10
64062;DHT22;50308;47.438;-1.528;2023-02-28T13:44:04;8.40;59.00
64062;DHT22;50308;47.438;-1.528;2023-02-28T13:46:30;8.40;61.50
64062;DHT22;50308;47.438;-1.528;2023-02-28T13:48:56;8.40;61.00
64062;DHT22;50308;47.438;-1.528;2023-02-28T13:51:43;8.50;60.90
64062;DHT22;50308;47.438;-1.528;2023-02-28T13:57:08;8.50;62.10
64062;DHT22;50308;47.438;-1.528;2023-02-28T13:59:37;8.50;62.90
64062;DHT22;50308;47.438;-1.528;2023-02-28T14:02:17;8.50;62.30
64062;DHT22;50308;47.438;-1.528;2023-02-28T14:05:34;8.60;61.90
64062;DHT22;50308;47.438;-1.528;2023-02-28T14:07:48;8.60;62.90
64062;DHT22;50308;47.438;-1.528;2023-02-28T14:10:30;8.60;63.20
64062;DHT22;50308;47.438;-1.528;2023-02-28T14:12:58;8.60;62.90
64062;DHT22;50308;47.438;-1.528;2023-02-28T14:18:13;8.60;62.80
64062;DHT22;50308;47.438;-1.528;2023-02-28T14:20:39;8.60;62.80
64062;DHT22;50308;47.438;-1.528;2023-02-28T14:25:41;8.70;61.90
64062;DHT22;50308;47.438;-1.528;2023-02-28T14:28:54;8.70;63.10
64062;DHT22;50308;47.438;-1.528;2023-02-28T14:38:24;8.70;62.60
64062;DHT22;50308;47.438;-1.528;2023-02-28T14:40:54;8.70;63.30
64062;DHT22;50308;47.438;-1.528;2023-02-28T14:43:27;8.80;63.40
64062;DHT22;50308;47.438;-1.528;2023-02-28T14:45:57;8.80;64.10
64062;DHT22;50308;47.438;-1.528;2023-02-28T14:48:23;8.80;63.10
64062;DHT22;50308;47.438;-1.528;2023-02-28T14:50:54;8.80;62.50
64062;DHT22;50308;47.438;-1.528;2023-02-28T14:53:21;8.80;63.40
64062;DHT22;50308;47.438;-1.528;2023-02-28T14:55:48;8.80;62.80
64062;DHT22;50308;47.438;-1.528;2023-02-28T15:00:49;8.80;63.70
64062;DHT22;50308;47.438;-1.528;2023-02-28T15:03:28;8.90;63.80
64062;DHT22;50308;47.438;-1.528;2023-02-28T15:06:14;8.80;63.60
64062;DHT22;50308;47.438;-1.528;2023-02-28T15:08:40;8.90;64.10
64062;DHT22;50308;47.438;-1.528;2023-02-28T15:11:16;8.90;64.20
64062;DHT22;50308;47.438;-1.528;2023-02-28T15:13:51;8.90;63.40
64062;DHT22;50308;47.438;-1.528;2023-02-28T15:21:11;8.90;63.80
64062;DHT22;50308;47.438;-1.528;2023-02-28T15:23:37;8.90;63.70
64062;DHT22;50308;47.438;-1.528;2023-02-28T15:26:04;9.00;63.80
64062;DHT22;50308;47.438;-1.528;2023-02-28T15:28:30;8.90;63.60
64062;DHT22;50308;47.438;-1.528;2023-02-28T15:31:00;9.00;64.10
64062;DHT22;50308;47.438;-1.528;2023-02-28T15:33:27;9.00;64.10
64062;DHT22;50308;47.438;-1.528;2023-02-28T15:38:37;9.00;64.40
64062;DHT22;50308;47.438;-1.528;2023-02-28T15:41:03;9.00;63.80
64062;DHT22;50308;47.438;-1.528;2023-02-28T15:43:36;9.00;63.90
64062;DHT22;50308;47.438;-1.528;2023-02-28T15:48:32;9.00;63.80
64062;DHT22;50308;47.438;-1.528;2023-02-28T15:53:47;9.00;63.70
64062;DHT22;50308;47.438;-1.528;2023-02-28T15:56:22;9.00;64.10
64062;DHT22;50308;47.438;-1.528;2023-02-28T15:58:48;9.00;64.30
64062;DHT22;50308;47.438;-1.528;2023-02-28T16:01:23;9.00;64.20
64062;DHT22;50308;47.438;-1.528;2023-02-28T16:03:50;9.00;64.20
64062;DHT22;50308;47.438;-1.528;2023-02-28T16:08:42;9.00;64.40
64062;DHT22;50308;47.438;-1.528;2023-02-28T16:11:08;9.00;64.30
64062;DHT22;50308;47.438;-1.528;2023-02-28T16:13:35;9.10;64.40
64062;DHT22;50308;47.438;-1.528;2023-02-28T16:16:00;9.10;63.50
64062;DHT22;50308;47.438;-1.528;2023-02-28T16:18:26;9.10;63.90
64062;DHT22;50308;47.438;-1.528;2023-02-28T16:20:52;9.10;64.10
64062;DHT22;50308;47.438;-1.528;2023-02-28T16:23:17;9.10;63.60
64062;DHT22;50308;47.438;-1.528;2023-02-28T16:25:43;9.10;63.70
64062;DHT22;50308;47.438;-1.528;2023-02-28T16:28:21;9.10;63.50
64062;DHT22;50308;47.438;-1.528;2023-02-28T16:30:47;9.10;63.60
64062;DHT22;50308;47.438;-1.528;2023-02-28T16:33:14;9.10;63.50
64062;DHT22;50308;47.438;-1.528;2023-02-28T16:35:39;9.10;63.20
64062;DHT22;50308;47.438;-1.528;2023-02-28T16:38:06;9.10;64.10
64062;DHT22;50308;47.438;-1.528;2023-02-28T16:40:33;9.10;64.20
64062;DHT22;50308;47.438;-1.528;2023-02-28T16:42:59;9.00;63.70
64062;DHT22;50308;47.438;-1.528;2023-02-28T16:45:26;9.00;63.80
64062;DHT22;50308;47.438;-1.528;2023-02-28T16:47:52;9.00;63.80
64062;DHT22;50308;47.438;-1.528;2023-02-28T16:50:19;8.90;63.70
64062;DHT22;50308;47.438;-1.528;2023-02-28T16:52:45;8.90;64.40
64062;DHT22;50308;47.438;-1.528;2023-02-28T16:55:11;9.00;64.50
64062;DHT22;50308;47.438;-1.528;2023-02-28T16:57:37;8.90;64.20
64062;DHT22;50308;47.438;-1.528;2023-02-28T17:00:03;9.00;65.00
64062;DHT22;50308;47.438;-1.528;2023-02-28T17:02:29;8.90;64.80
64062;DHT22;50308;47.438;-1.528;2023-02-28T17:04:55;8.90;64.30
64062;DHT22;50308;47.438;-1.528;2023-02-28T17:07:20;8.80;63.40
64062;DHT22;50308;47.438;-1.528;2023-02-28T17:09:46;8.80;63.90
64062;DHT22;50308;47.438;-1.528;2023-02-28T17:12:11;8.80;64.10
64062;DHT22;50308;47.438;-1.528;2023-02-28T17:14:37;8.80;64.30
64062;DHT22;50308;47.438;-1.528;2023-02-28T17:17:06;8.80;64.40
64062;DHT22;50308;47.438;-1.528;2023-02-28T17:19:32;8.70;64.60
64062;DHT22;50308;47.438;-1.528;2023-02-28T17:21:59;8.70;64.90
64062;DHT22;50308;47.438;-1.528;2023-02-28T17:24:24;8.70;66.20
64062;DHT22;50308;47.438;-1.528;2023-02-28T17:26:50;8.80;65.50
64062;DHT22;50308;47.438;-1.528;2023-02-28T17:29:16;8.60;65.50
64062;DHT22;50308;47.438;-1.528;2023-02-28T17:31:42;8.60;65.60
64062;DHT22;50308;47.438;-1.528;2023-02-28T17:34:08;8.70;65.60
64062;DHT22;50308;47.438;-1.528;2023-02-28T17:36:34;8.70;66.10
64062;DHT22;50308;47.438;-1.528;2023-02-28T17:39:00;8.60;65.70
64062;DHT22;50308;47.438;-1.528;2023-02-28T17:41:26;8.60;66.30
64062;DHT22;50308;47.438;-1.528;2023-02-28T17:43:52;8.50;66.60
64062;DHT22;50308;47.438;-1.528;2023-02-28T17:46:21;8.60;66.60
64062;DHT22;50308;47.438;-1.528;2023-02-28T17:48:47;8.50;67.10
64062;DHT22;50308;47.438;-1.528;2023-02-28T17:51:14;8.50;67.70
64062;DHT22;50308;47.438;-1.528;2023-02-28T17:53:40;8.40;68.00
64062;DHT22;50308;47.438;-1.528;2023-02-28T17:56:10;8.40;68.30
64062;DHT22;50308;47.438;-1.528;2023-02-28T17:58:36;8.50;68.50
64062;DHT22;50308;47.438;-1.528;2023-02-28T18:01:01;8.40;68.80
64062;DHT22;50308;47.438;-1.528;2023-02-28T18:03:27;8.40;69.10
64062;DHT22;50308;47.438;-1.528;2023-02-28T18:05:53;8.40;69.10
64062;DHT22;50308;47.438;-1.528;2023-02-28T18:08:19;8.30;69.30
64062;DHT22;50308;47.438;-1.528;2023-02-28T18:10:44;8.30;69.30